Impacts METAR Board
IDs:

KPHL - Philadelphia Intl, PA, US

Updated at: 0100 UTC 31 May 2020
Potential Impact None Slight Moderate High
Time 30/13Z 30/14Z 30/15Z 30/16Z 30/17Z 30/18Z 30/19Z 30/20Z 30/21Z 30/22Z 30/23Z 31/00Z 31/01Z
Temp71 74 74 75 77 79 81 82 82 81 80 78 77
Dewpt58 58 56 55 54 51 48 45 46 47 49 49 50
Altim29.95 29.95 29.94 29.93 29.93 29.92 29.90 29.90 29.90 29.89 29.90 29.91 29.92
VIS10 10 10 10 10 10 10 10 10 10 10 10 10
CIG250 250 -- -- -- -- -- -- -- -- -- 110 --
CoverBKNBKNSCTSCTSCTSCTSCTSCTSCTSCTSCTBKNSCT
FltCatVFRVFRVFRVFRVFRVFRVFRVFRVFRVFRVFRVFRVFR
WX--------------------------
WDir300330300310290300300310290310260280290
WSpd8 10 6 4 8 7 11 9 14 8 10 12 7
WGst-- -- -- -- -- -- -- 17 18 16 -- -- --
Raw hourly METARs
KPHL 301254Z 30008KT 10SM SCT028 SCT130 BKN250 22/14 A2995 RMK AO2 SLP140 T02170144
KPHL 301354Z 33010KT 10SM SCT032 SCT130 BKN250 23/14 A2995 RMK AO2 SLP141 T02330144
KPHL 301454Z 30006KT 10SM FEW035 FEW130 SCT250 23/13 A2994 RMK AO2 SLP138 T02330133 50000
KPHL 301554Z 31004KT 10SM FEW041 SCT250 24/13 A2993 RMK AO2 SLP135 T02390128
KPHL 301654Z 29008KT 10SM FEW043 SCT100 SCT250 25/12 A2993 RMK AO2 SLP133 T02500122
KPHL 301754Z 30007KT 280V340 10SM FEW045 SCT110 SCT250 26/11 A2992 RMK AO2 SLP130 T02610106 10261 20217 58008
KPHL 301854Z 30011KT 10SM FEW060 FEW120 SCT250 27/09 A2990 RMK AO2 SLP126 T02720089
KPHL 301954Z 31009G17KT 10SM FEW060 SCT110 SCT250 28/07 A2990 RMK AO2 SLP123 T02780072
KPHL 302054Z 29014G18KT 10SM SCT080 SCT250 28/08 A2990 RMK AO2 SLP123 T02780078 56007
KPHL 302154Z 31008G16KT 10SM SCT080 SCT120 SCT250 27/08 A2989 RMK AO2 SLP120 T02720083
KPHL 302254Z 26010KT 10SM SCT080 SCT120 SCT250 27/09 A2990 RMK AO2 SLP123 T02670094
KPHL 302354Z 28012KT 10SM FEW080 BKN110 BKN250 26/09 A2991 RMK AO2 SLP129 T02560094 10278 20256 53006
KPHL 310054Z 29007KT 10SM SCT110 25/10 A2992 RMK AO2 SLP132 T02500100



Page loaded:  01:38 UTC  |   06:38 PM Pacific  |   07:38 PM Mountain  |   08:38 PM Central  |   09:38 PM Eastern

 

ADVISORIES

FORECASTS

FORECASTS

OBSERVATIONS

USER TOOLS

ABOUT US